EGTK

Oxford (Kidlington) Airport

Kidlington, United Kingdom
METAR EGTK 151920Z 18006KT CAVOK 07/03 Q1023
Observed Flight Rules
Feb-15 @ 19:20 UTC (35 minutes ago) Visual Flight Rules
Wind Visibility Clouds
180° at 6 knots 10,000+ meters
  • Clear skies
Temperatures Readings
Current 7°C / 45°F
Dewpoint 3°C / 37°F
Humidity 76%
Altimeter 30.21" Hg
Pressure 1022.92 hPa
Elevation 82
METAR EGTK 151920Z 18006KT CAVOK 07/03 Q1023
Observed Flight Rules
Feb-15 @ 19:20 UTC
(35 minutes ago)
VFR
Wind Visibility
180° at 6 knots 10,000+ meters
Clouds
  • Clear skies
Temperature Dewpoint
7°C / 45°F 3°C / 37°F
Humidity Altimeter Pressure
76% 30.21" Hg 1022.92 hPa